sensor_id;sensor_type;location;lat;lon;timestamp;P1;durP1;ratioP1;P2;durP2;ratioP2
70026;SDS011;57506;50.092;15.804;2023-04-25T00:02:24;4.20;;;1.60;;
70026;SDS011;57506;50.092;15.804;2023-04-25T00:04:50;4.63;;;1.93;;
70026;SDS011;57506;50.092;15.804;2023-04-25T00:07:15;4.97;;;1.90;;
70026;SDS011;57506;50.092;15.804;2023-04-25T00:09:41;5.10;;;2.10;;
70026;SDS011;57506;50.092;15.804;2023-04-25T00:12:07;3.95;;;1.70;;
70026;SDS011;57506;50.092;15.804;2023-04-25T00:14:33;4.13;;;1.60;;
70026;SDS011;57506;50.092;15.804;2023-04-25T00:17:00;4.82;;;2.20;;
70026;SDS011;57506;50.092;15.804;2023-04-25T00:19:27;4.37;;;1.90;;
70026;SDS011;57506;50.092;15.804;2023-04-25T00:21:56;4.22;;;1.70;;
70026;SDS011;57506;50.092;15.804;2023-04-25T00:24:22;5.00;;;1.88;;
70026;SDS011;57506;50.092;15.804;2023-04-25T00:26:47;3.73;;;1.60;;
70026;SDS011;57506;50.092;15.804;2023-04-25T00:29:13;4.00;;;1.80;;
70026;SDS011;57506;50.092;15.804;2023-04-25T00:31:39;4.97;;;2.00;;
70026;SDS011;57506;50.092;15.804;2023-04-25T00:34:05;3.75;;;1.63;;
70026;SDS011;57506;50.092;15.804;2023-04-25T00:36:31;5.33;;;1.73;;
70026;SDS011;57506;50.092;15.804;2023-04-25T00:38:57;4.35;;;2.10;;
70026;SDS011;57506;50.092;15.804;2023-04-25T00:41:23;5.23;;;2.20;;
70026;SDS011;57506;50.092;15.804;2023-04-25T00:43:51;6.35;;;1.90;;
70026;SDS011;57506;50.092;15.804;2023-04-25T00:46:18;4.53;;;1.80;;
70026;SDS011;57506;50.092;15.804;2023-04-25T00:48:44;4.67;;;1.73;;
70026;SDS011;57506;50.092;15.804;2023-04-25T00:51:09;4.67;;;2.10;;
70026;SDS011;57506;50.092;15.804;2023-04-25T00:53:40;4.30;;;1.90;;
70026;SDS011;57506;50.092;15.804;2023-04-25T00:56:06;4.87;;;2.10;;
70026;SDS011;57506;50.092;15.804;2023-04-25T00:58:31;6.90;;;2.20;;
70026;SDS011;57506;50.092;15.804;2023-04-25T01:00:57;4.10;;;1.80;;
70026;SDS011;57506;50.092;15.804;2023-04-25T01:03:22;4.57;;;1.93;;
70026;SDS011;57506;50.092;15.804;2023-04-25T01:05:49;4.45;;;2.03;;
70026;SDS011;57506;50.092;15.804;2023-04-25T01:08:15;4.50;;;2.00;;
70026;SDS011;57506;50.092;15.804;2023-04-25T01:10:41;4.30;;;1.73;;
70026;SDS011;57506;50.092;15.804;2023-04-25T01:13:07;4.63;;;2.13;;
70026;SDS011;57506;50.092;15.804;2023-04-25T01:15:33;6.35;;;1.83;;
70026;SDS011;57506;50.092;15.804;2023-04-25T01:18:00;5.63;;;2.03;;
70026;SDS011;57506;50.092;15.804;2023-04-25T01:20:27;4.63;;;1.83;;
70026;SDS011;57506;50.092;15.804;2023-04-25T01:22:53;4.68;;;1.80;;
70026;SDS011;57506;50.092;15.804;2023-04-25T01:25:20;4.65;;;1.90;;
70026;SDS011;57506;50.092;15.804;2023-04-25T01:27:46;4.40;;;1.83;;
70026;SDS011;57506;50.092;15.804;2023-04-25T01:30:12;5.33;;;2.30;;
70026;SDS011;57506;50.092;15.804;2023-04-25T01:32:38;4.32;;;1.98;;
70026;SDS011;57506;50.092;15.804;2023-04-25T01:35:06;4.68;;;1.90;;
70026;SDS011;57506;50.092;15.804;2023-04-25T01:37:37;5.07;;;2.28;;
70026;SDS011;57506;50.092;15.804;2023-04-25T01:40:07;4.90;;;2.00;;
70026;SDS011;57506;50.092;15.804;2023-04-25T01:42:35;4.47;;;1.90;;
70026;SDS011;57506;50.092;15.804;2023-04-25T01:45:02;5.30;;;2.03;;
70026;SDS011;57506;50.092;15.804;2023-04-25T01:47:28;5.03;;;2.17;;
70026;SDS011;57506;50.092;15.804;2023-04-25T01:49:53;5.23;;;2.17;;
70026;SDS011;57506;50.092;15.804;2023-04-25T01:52:19;5.50;;;1.98;;
70026;SDS011;57506;50.092;15.804;2023-04-25T01:54:44;5.17;;;2.00;;
70026;SDS011;57506;50.092;15.804;2023-04-25T01:57:11;4.72;;;1.98;;
70026;SDS011;57506;50.092;15.804;2023-04-25T01:59:36;5.30;;;2.15;;
70026;SDS011;57506;50.092;15.804;2023-04-25T02:02:02;6.17;;;1.87;;
70026;SDS011;57506;50.092;15.804;2023-04-25T02:04:29;5.28;;;2.20;;
70026;SDS011;57506;50.092;15.804;2023-04-25T02:06:55;5.47;;;2.70;;
70026;SDS011;57506;50.092;15.804;2023-04-25T02:09:21;6.27;;;2.63;;
70026;SDS011;57506;50.092;15.804;2023-04-25T02:11:46;5.68;;;2.10;;
70026;SDS011;57506;50.092;15.804;2023-04-25T02:14:12;6.03;;;2.40;;
70026;SDS011;57506;50.092;15.804;2023-04-25T02:16:38;7.80;;;2.42;;
70026;SDS011;57506;50.092;15.804;2023-04-25T02:19:03;4.83;;;2.07;;
70026;SDS011;57506;50.092;15.804;2023-04-25T02:21:29;4.88;;;2.47;;
70026;SDS011;57506;50.092;15.804;2023-04-25T02:23:55;5.25;;;2.50;;
70026;SDS011;57506;50.092;15.804;2023-04-25T02:26:21;7.97;;;2.50;;
70026;SDS011;57506;50.092;15.804;2023-04-25T02:28:48;7.35;;;2.40;;
70026;SDS011;57506;50.092;15.804;2023-04-25T02:31:15;4.90;;;2.22;;
70026;SDS011;57506;50.092;15.804;2023-04-25T02:33:40;6.20;;;2.67;;
70026;SDS011;57506;50.092;15.804;2023-04-25T02:36:06;6.15;;;2.50;;
70026;SDS011;57506;50.092;15.804;2023-04-25T02:38:31;5.03;;;2.53;;
70026;SDS011;57506;50.092;15.804;2023-04-25T02:40:57;5.77;;;2.70;;
70026;SDS011;57506;50.092;15.804;2023-04-25T02:43:22;7.30;;;2.80;;
70026;SDS011;57506;50.092;15.804;2023-04-25T02:45:48;5.87;;;2.70;;
70026;SDS011;57506;50.092;15.804;2023-04-25T02:48:13;6.33;;;3.10;;
70026;SDS011;57506;50.092;15.804;2023-04-25T02:50:39;7.17;;;3.00;;
70026;SDS011;57506;50.092;15.804;2023-04-25T02:53:04;4.85;;;2.40;;
70026;SDS011;57506;50.092;15.804;2023-04-25T02:55:30;5.77;;;2.87;;
70026;SDS011;57506;50.092;15.804;2023-04-25T02:57:55;6.50;;;2.73;;
70026;SDS011;57506;50.092;15.804;2023-04-25T03:00:21;6.13;;;3.28;;
70026;SDS011;57506;50.092;15.804;2023-04-25T03:02:47;7.20;;;2.80;;
70026;SDS011;57506;50.092;15.804;2023-04-25T03:05:13;8.20;;;2.55;;
70026;SDS011;57506;50.092;15.804;2023-04-25T03:07:38;6.07;;;2.73;;
70026;SDS011;57506;50.092;15.804;2023-04-25T03:10:05;6.97;;;2.90;;
70026;SDS011;57506;50.092;15.804;2023-04-25T03:12:31;6.72;;;3.20;;
70026;SDS011;57506;50.092;15.804;2023-04-25T03:14:57;6.63;;;3.13;;
70026;SDS011;57506;50.092;15.804;2023-04-25T03:17:23;5.97;;;2.80;;
70026;SDS011;57506;50.092;15.804;2023-04-25T03:19:48;6.00;;;2.85;;
70026;SDS011;57506;50.092;15.804;2023-04-25T03:22:13;6.53;;;2.93;;
70026;SDS011;57506;50.092;15.804;2023-04-25T03:24:39;7.10;;;2.77;;
70026;SDS011;57506;50.092;15.804;2023-04-25T03:27:05;7.15;;;2.75;;
70026;SDS011;57506;50.092;15.804;2023-04-25T03:29:30;7.50;;;3.13;;
70026;SDS011;57506;50.092;15.804;2023-04-25T03:31:56;5.17;;;2.67;;
70026;SDS011;57506;50.092;15.804;2023-04-25T03:34:22;6.00;;;2.90;;
70026;SDS011;57506;50.092;15.804;2023-04-25T03:36:47;7.85;;;2.65;;
70026;SDS011;57506;50.092;15.804;2023-04-25T03:39:13;6.73;;;2.83;;
70026;SDS011;57506;50.092;15.804;2023-04-25T03:41:38;8.30;;;3.10;;
70026;SDS011;57506;50.092;15.804;2023-04-25T03:44:04;6.73;;;3.20;;
70026;SDS011;57506;50.092;15.804;2023-04-25T03:46:29;6.83;;;2.67;;
70026;SDS011;57506;50.092;15.804;2023-04-25T03:48:55;5.93;;;2.90;;
70026;SDS011;57506;50.092;15.804;2023-04-25T03:51:20;6.60;;;2.70;;
70026;SDS011;57506;50.092;15.804;2023-04-25T03:53:46;7.50;;;2.90;;
70026;SDS011;57506;50.092;15.804;2023-04-25T03:56:12;8.18;;;3.13;;
70026;SDS011;57506;50.092;15.804;2023-04-25T03:58:37;6.63;;;2.93;;
70026;SDS011;57506;50.092;15.804;2023-04-25T04:01:03;7.60;;;3.00;;
70026;SDS011;57506;50.092;15.804;2023-04-25T04:03:32;6.00;;;2.83;;
70026;SDS011;57506;50.092;15.804;2023-04-25T04:05:59;9.35;;;3.40;;
70026;SDS011;57506;50.092;15.804;2023-04-25T04:08:25;9.47;;;3.37;;
70026;SDS011;57506;50.092;15.804;2023-04-25T04:10:50;8.43;;;3.30;;
70026;SDS011;57506;50.092;15.804;2023-04-25T04:13:16;9.77;;;3.37;;
70026;SDS011;57506;50.092;15.804;2023-04-25T04:15:41;8.97;;;2.60;;
70026;SDS011;57506;50.092;15.804;2023-04-25T04:18:07;6.35;;;3.10;;
70026;SDS011;57506;50.092;15.804;2023-04-25T04:20:32;8.43;;;3.37;;
70026;SDS011;57506;50.092;15.804;2023-04-25T04:22:58;7.87;;;3.03;;
70026;SDS011;57506;50.092;15.804;2023-04-25T04:25:23;7.28;;;3.35;;
70026;SDS011;57506;50.092;15.804;2023-04-25T04:27:49;7.87;;;3.50;;
70026;SDS011;57506;50.092;15.804;2023-04-25T04:30:19;7.20;;;3.70;;
70026;SDS011;57506;50.092;15.804;2023-04-25T04:32:46;8.75;;;3.70;;
70026;SDS011;57506;50.092;15.804;2023-04-25T04:35:13;8.38;;;3.60;;
70026;SDS011;57506;50.092;15.804;2023-04-25T04:37:39;7.73;;;3.30;;
70026;SDS011;57506;50.092;15.804;2023-04-25T04:40:05;6.10;;;3.20;;
70026;SDS011;57506;50.092;15.804;2023-04-25T04:42:32;7.87;;;3.17;;
70026;SDS011;57506;50.092;15.804;2023-04-25T04:44:58;11.48;;;3.83;;
70026;SDS011;57506;50.092;15.804;2023-04-25T04:47:26;7.05;;;3.00;;
70026;SDS011;57506;50.092;15.804;2023-04-25T04:49:56;8.60;;;4.00;;
70026;SDS011;57506;50.092;15.804;2023-04-25T04:52:22;8.53;;;3.57;;
70026;SDS011;57506;50.092;15.804;2023-04-25T04:54:47;10.32;;;3.67;;
70026;SDS011;57506;50.092;15.804;2023-04-25T04:57:13;10.20;;;3.60;;
70026;SDS011;57506;50.092;15.804;2023-04-25T04:59:38;8.90;;;3.90;;
70026;SDS011;57506;50.092;15.804;2023-04-25T05:02:04;8.40;;;3.60;;
70026;SDS011;57506;50.092;15.804;2023-04-25T05:04:29;10.53;;;3.80;;
70026;SDS011;57506;50.092;15.804;2023-04-25T05:06:55;8.40;;;4.17;;
70026;SDS011;57506;50.092;15.804;2023-04-25T05:09:20;7.63;;;3.78;;
70026;SDS011;57506;50.092;15.804;2023-04-25T05:11:50;6.60;;;2.95;;
70026;SDS011;57506;50.092;15.804;2023-04-25T05:14:16;6.63;;;2.80;;
70026;SDS011;57506;50.092;15.804;2023-04-25T05:16:42;7.05;;;3.25;;
70026;SDS011;57506;50.092;15.804;2023-04-25T05:19:08;7.53;;;3.73;;
70026;SDS011;57506;50.092;15.804;2023-04-25T05:21:33;7.63;;;4.13;;
70026;SDS011;57506;50.092;15.804;2023-04-25T05:24:01;10.65;;;4.32;;
70026;SDS011;57506;50.092;15.804;2023-04-25T05:26:27;10.52;;;3.97;;
70026;SDS011;57506;50.092;15.804;2023-04-25T05:28:56;10.57;;;4.37;;
70026;SDS011;57506;50.092;15.804;2023-04-25T05:31:22;8.10;;;3.97;;
70026;SDS011;57506;50.092;15.804;2023-04-25T05:33:48;8.90;;;4.20;;
70026;SDS011;57506;50.092;15.804;2023-04-25T05:36:13;9.73;;;4.10;;
70026;SDS011;57506;50.092;15.804;2023-04-25T05:38:39;8.93;;;4.10;;
70026;SDS011;57506;50.092;15.804;2023-04-25T05:41:04;9.90;;;4.60;;
70026;SDS011;57506;50.092;15.804;2023-04-25T05:43:30;7.57;;;4.03;;
70026;SDS011;57506;50.092;15.804;2023-04-25T05:45:55;7.87;;;4.20;;
70026;SDS011;57506;50.092;15.804;2023-04-25T05:48:21;8.13;;;4.38;;
70026;SDS011;57506;50.092;15.804;2023-04-25T05:50:46;11.83;;;4.70;;
70026;SDS011;57506;50.092;15.804;2023-04-25T05:53:12;8.93;;;3.87;;
70026;SDS011;57506;50.092;15.804;2023-04-25T05:55:37;13.18;;;4.50;;
70026;SDS011;57506;50.092;15.804;2023-04-25T05:58:05;8.80;;;4.27;;
70026;SDS011;57506;50.092;15.804;2023-04-25T06:00:32;11.18;;;4.63;;
70026;SDS011;57506;50.092;15.804;2023-04-25T06:02:57;7.87;;;4.23;;
70026;SDS011;57506;50.092;15.804;2023-04-25T06:05:23;9.90;;;4.18;;
70026;SDS011;57506;50.092;15.804;2023-04-25T06:07:48;8.70;;;4.17;;
70026;SDS011;57506;50.092;15.804;2023-04-25T06:10:14;8.45;;;4.53;;
70026;SDS011;57506;50.092;15.804;2023-04-25T06:12:40;8.37;;;4.30;;
70026;SDS011;57506;50.092;15.804;2023-04-25T06:15:06;8.93;;;4.35;;
70026;SDS011;57506;50.092;15.804;2023-04-25T06:17:32;10.75;;;4.72;;
70026;SDS011;57506;50.092;15.804;2023-04-25T06:19:58;8.43;;;4.83;;
70026;SDS011;57506;50.092;15.804;2023-04-25T06:22:23;8.00;;;4.05;;
70026;SDS011;57506;50.092;15.804;2023-04-25T06:24:49;9.43;;;4.80;;
70026;SDS011;57506;50.092;15.804;2023-04-25T06:27:15;8.90;;;4.33;;
70026;SDS011;57506;50.092;15.804;2023-04-25T06:29:40;8.85;;;4.50;;
70026;SDS011;57506;50.092;15.804;2023-04-25T06:32:06;10.53;;;5.53;;
70026;SDS011;57506;50.092;15.804;2023-04-25T06:34:31;8.80;;;4.60;;
70026;SDS011;57506;50.092;15.804;2023-04-25T06:36:57;8.77;;;4.72;;
70026;SDS011;57506;50.092;15.804;2023-04-25T06:39:22;7.87;;;4.13;;
70026;SDS011;57506;50.092;15.804;2023-04-25T06:41:49;9.82;;;4.50;;
70026;SDS011;57506;50.092;15.804;2023-04-25T06:44:15;9.73;;;4.57;;
70026;SDS011;57506;50.092;15.804;2023-04-25T06:46:40;10.50;;;4.50;;
70026;SDS011;57506;50.092;15.804;2023-04-25T06:49:06;10.60;;;4.75;;
70026;SDS011;57506;50.092;15.804;2023-04-25T06:51:32;12.20;;;5.03;;
70026;SDS011;57506;50.092;15.804;2023-04-25T06:53:57;10.82;;;4.68;;
70026;SDS011;57506;50.092;15.804;2023-04-25T06:56:23;7.90;;;4.63;;
70026;SDS011;57506;50.092;15.804;2023-04-25T06:58:49;9.32;;;4.47;;
70026;SDS011;57506;50.092;15.804;2023-04-25T07:01:14;10.53;;;5.00;;
70026;SDS011;57506;50.092;15.804;2023-04-25T07:03:40;10.77;;;4.32;;
70026;SDS011;57506;50.092;15.804;2023-04-25T07:06:06;9.60;;;4.87;;
70026;SDS011;57506;50.092;15.804;2023-04-25T07:08:31;8.27;;;4.55;;
70026;SDS011;57506;50.092;15.804;2023-04-25T07:10:57;9.07;;;4.13;;
70026;SDS011;57506;50.092;15.804;2023-04-25T07:13:22;9.83;;;4.57;;
70026;SDS011;57506;50.092;15.804;2023-04-25T07:15:48;12.57;;;4.78;;
70026;SDS011;57506;50.092;15.804;2023-04-25T07:18:14;11.17;;;4.70;;
70026;SDS011;57506;50.092;15.804;2023-04-25T07:20:40;11.00;;;4.43;;
70026;SDS011;57506;50.092;15.804;2023-04-25T07:23:05;12.33;;;4.60;;
70026;SDS011;57506;50.092;15.804;2023-04-25T07:25:31;8.67;;;4.47;;
70026;SDS011;57506;50.092;15.804;2023-04-25T07:27:56;8.48;;;4.18;;
70026;SDS011;57506;50.092;15.804;2023-04-25T07:30:22;11.07;;;4.77;;
70026;SDS011;57506;50.092;15.804;2023-04-25T07:32:47;7.83;;;4.00;;
70026;SDS011;57506;50.092;15.804;2023-04-25T07:35:13;10.20;;;4.60;;
70026;SDS011;57506;50.092;15.804;2023-04-25T07:37:39;11.53;;;4.03;;
70026;SDS011;57506;50.092;15.804;2023-04-25T07:40:04;10.77;;;4.60;;
70026;SDS011;57506;50.092;15.804;2023-04-25T07:42:30;10.20;;;4.70;;
70026;SDS011;57506;50.092;15.804;2023-04-25T07:44:56;9.32;;;4.43;;
70026;SDS011;57506;50.092;15.804;2023-04-25T07:47:22;9.00;;;3.47;;
70026;SDS011;57506;50.092;15.804;2023-04-25T07:49:47;8.07;;;3.93;;
70026;SDS011;57506;50.092;15.804;2023-04-25T07:52:13;8.33;;;3.50;;
70026;SDS011;57506;50.092;15.804;2023-04-25T07:54:38;8.18;;;3.25;;
70026;SDS011;57506;50.092;15.804;2023-04-25T07:57:04;7.77;;;3.83;;
70026;SDS011;57506;50.092;15.804;2023-04-25T07:59:31;6.68;;;3.10;;
70026;SDS011;57506;50.092;15.804;2023-04-25T08:01:57;7.93;;;3.40;;
70026;SDS011;57506;50.092;15.804;2023-04-25T08:04:22;9.68;;;4.13;;
70026;SDS011;57506;50.092;15.804;2023-04-25T08:06:48;7.53;;;4.13;;
70026;SDS011;57506;50.092;15.804;2023-04-25T08:09:15;7.85;;;3.72;;
70026;SDS011;57506;50.092;15.804;2023-04-25T08:11:40;8.60;;;3.70;;
70026;SDS011;57506;50.092;15.804;2023-04-25T08:14:06;7.57;;;3.47;;
70026;SDS011;57506;50.092;15.804;2023-04-25T08:16:32;7.00;;;3.35;;
70026;SDS011;57506;50.092;15.804;2023-04-25T08:18:59;10.67;;;4.57;;
70026;SDS011;57506;50.092;15.804;2023-04-25T08:21:25;9.48;;;4.68;;
70026;SDS011;57506;50.092;15.804;2023-04-25T08:23:51;8.75;;;3.95;;
70026;SDS011;57506;50.092;15.804;2023-04-25T08:26:19;10.33;;;3.00;;
70026;SDS011;57506;50.092;15.804;2023-04-25T08:28:45;8.07;;;2.83;;
70026;SDS011;57506;50.092;15.804;2023-04-25T08:31:11;7.47;;;3.50;;
70026;SDS011;57506;50.092;15.804;2023-04-25T08:33:37;8.97;;;4.27;;
70026;SDS011;57506;50.092;15.804;2023-04-25T08:36:02;9.73;;;4.10;;
70026;SDS011;57506;50.092;15.804;2023-04-25T08:38:28;7.63;;;3.78;;
70026;SDS011;57506;50.092;15.804;2023-04-25T08:40:53;7.10;;;3.47;;
70026;SDS011;57506;50.092;15.804;2023-04-25T08:43:20;8.95;;;3.67;;
70026;SDS011;57506;50.092;15.804;2023-04-25T08:45:46;7.53;;;4.22;;
70026;SDS011;57506;50.092;15.804;2023-04-25T08:48:13;7.27;;;4.30;;
70026;SDS011;57506;50.092;15.804;2023-04-25T08:50:40;6.75;;;4.05;;
70026;SDS011;57506;50.092;15.804;2023-04-25T08:53:14;16.08;;;4.22;;
70026;SDS011;57506;50.092;15.804;2023-04-25T08:55:43;8.93;;;4.47;;
70026;SDS011;57506;50.092;15.804;2023-04-25T08:58:11;7.22;;;3.92;;
70026;SDS011;57506;50.092;15.804;2023-04-25T09:00:38;10.07;;;4.20;;
70026;SDS011;57506;50.092;15.804;2023-04-25T09:03:04;5.95;;;3.60;;
70026;SDS011;57506;50.092;15.804;2023-04-25T09:05:31;7.57;;;3.75;;
70026;SDS011;57506;50.092;15.804;2023-04-25T09:07:58;9.25;;;3.80;;
70026;SDS011;57506;50.092;15.804;2023-04-25T09:10:23;6.30;;;3.67;;
70026;SDS011;57506;50.092;15.804;2023-04-25T09:15:48;7.03;;;3.87;;
70026;SDS011;57506;50.092;15.804;2023-04-25T09:18:14;8.23;;;3.80;;
70026;SDS011;57506;50.092;15.804;2023-04-25T09:20:51;6.45;;;3.60;;
70026;SDS011;57506;50.092;15.804;2023-04-25T09:23:30;8.13;;;3.33;;
70026;SDS011;57506;50.092;15.804;2023-04-25T09:26:03;9.63;;;3.05;;
70026;SDS011;57506;50.092;15.804;2023-04-25T09:28:31;8.43;;;3.53;;
70026;SDS011;57506;50.092;15.804;2023-04-25T09:30:57;6.55;;;3.53;;
70026;SDS011;57506;50.092;15.804;2023-04-25T09:33:31;7.17;;;3.53;;
70026;SDS011;57506;50.092;15.804;2023-04-25T09:38:29;8.52;;;4.20;;
70026;SDS011;57506;50.092;15.804;2023-04-25T09:40:56;6.78;;;4.30;;
70026;SDS011;57506;50.092;15.804;2023-04-25T09:43:24;9.13;;;3.95;;
70026;SDS011;57506;50.092;15.804;2023-04-25T09:45:54;8.35;;;3.55;;
70026;SDS011;57506;50.092;15.804;2023-04-25T09:48:24;6.13;;;3.30;;
70026;SDS011;57506;50.092;15.804;2023-04-25T09:53:29;6.22;;;2.92;;
70026;SDS011;57506;50.092;15.804;2023-04-25T09:55:57;6.35;;;2.97;;
70026;SDS011;57506;50.092;15.804;2023-04-25T09:58:25;6.85;;;3.30;;
70026;SDS011;57506;50.092;15.804;2023-04-25T10:00:52;7.43;;;3.87;;
70026;SDS011;57506;50.092;15.804;2023-04-25T10:03:23;8.73;;;3.60;;
70026;SDS011;57506;50.092;15.804;2023-04-25T10:05:50;6.65;;;3.55;;
70026;SDS011;57506;50.092;15.804;2023-04-25T10:08:17;8.05;;;3.72;;
70026;SDS011;57506;50.092;15.804;2023-04-25T10:10:44;6.30;;;3.42;;
70026;SDS011;57506;50.092;15.804;2023-04-25T10:13:11;6.97;;;3.60;;
70026;SDS011;57506;50.092;15.804;2023-04-25T10:15:39;5.85;;;3.40;;
70026;SDS011;57506;50.092;15.804;2023-04-25T10:18:06;7.20;;;3.88;;
70026;SDS011;57506;50.092;15.804;2023-04-25T10:20:32;11.18;;;4.22;;
70026;SDS011;57506;50.092;15.804;2023-04-25T10:23:03;7.33;;;4.20;;
70026;SDS011;57506;50.092;15.804;2023-04-25T10:25:38;7.60;;;4.00;;
70026;SDS011;57506;50.092;15.804;2023-04-25T10:28:05;8.75;;;4.20;;
70026;SDS011;57506;50.092;15.804;2023-04-25T10:30:31;8.20;;;4.47;;
70026;SDS011;57506;50.092;15.804;2023-04-25T10:32:56;8.90;;;4.30;;
70026;SDS011;57506;50.092;15.804;2023-04-25T10:35:28;7.68;;;4.38;;
70026;SDS011;57506;50.092;15.804;2023-04-25T10:40:37;9.93;;;5.20;;
70026;SDS011;57506;50.092;15.804;2023-04-25T10:45:56;8.05;;;4.60;;
70026;SDS011;57506;50.092;15.804;2023-04-25T10:48:29;8.30;;;4.40;;
70026;SDS011;57506;50.092;15.804;2023-04-25T10:51:11;9.85;;;4.55;;
70026;SDS011;57506;50.092;15.804;2023-04-25T10:53:40;8.63;;;4.28;;
70026;SDS011;57506;50.092;15.804;2023-04-25T10:56:09;7.93;;;4.77;;
70026;SDS011;57506;50.092;15.804;2023-04-25T10:58:36;8.13;;;4.55;;
70026;SDS011;57506;50.092;15.804;2023-04-25T11:01:07;7.63;;;5.10;;
70026;SDS011;57506;50.092;15.804;2023-04-25T11:03:32;9.60;;;4.63;;
70026;SDS011;57506;50.092;15.804;2023-04-25T11:06:03;8.48;;;5.22;;
70026;SDS011;57506;50.092;15.804;2023-04-25T11:08:38;10.00;;;4.85;;
70026;SDS011;57506;50.092;15.804;2023-04-25T11:11:14;8.45;;;5.20;;
70026;SDS011;57506;50.092;15.804;2023-04-25T11:13:39;10.27;;;5.10;;
70026;SDS011;57506;50.092;15.804;2023-04-25T11:16:07;9.65;;;5.22;;
70026;SDS011;57506;50.092;15.804;2023-04-25T11:18:33;14.75;;;5.03;;
70026;SDS011;57506;50.092;15.804;2023-04-25T11:20:59;11.27;;;5.80;;
70026;SDS011;57506;50.092;15.804;2023-04-25T11:23:25;8.95;;;5.07;;
70026;SDS011;57506;50.092;15.804;2023-04-25T11:25:51;8.20;;;5.20;;
70026;SDS011;57506;50.092;15.804;2023-04-25T11:28:20;8.27;;;5.13;;
70026;SDS011;57506;50.092;15.804;2023-04-25T11:30:50;10.57;;;5.70;;
70026;SDS011;57506;50.092;15.804;2023-04-25T11:33:16;10.25;;;5.07;;
70026;SDS011;57506;50.092;15.804;2023-04-25T11:35:42;7.20;;;4.88;;
70026;SDS011;57506;50.092;15.804;2023-04-25T11:38:07;8.27;;;5.30;;
70026;SDS011;57506;50.092;15.804;2023-04-25T11:40:33;8.63;;;5.00;;
70026;SDS011;57506;50.092;15.804;2023-04-25T11:43:01;8.23;;;4.28;;
70026;SDS011;57506;50.092;15.804;2023-04-25T11:45:26;7.07;;;4.73;;
70026;SDS011;57506;50.092;15.804;2023-04-25T11:47:52;9.10;;;4.50;;
70026;SDS011;57506;50.092;15.804;2023-04-25T11:50:18;8.13;;;3.97;;
70026;SDS011;57506;50.092;15.804;2023-04-25T11:52:44;7.85;;;4.45;;
70026;SDS011;57506;50.092;15.804;2023-04-25T11:55:18;7.17;;;4.53;;
70026;SDS011;57506;50.092;15.804;2023-04-25T11:57:45;8.00;;;4.75;;
70026;SDS011;57506;50.092;15.804;2023-04-25T12:00:18;8.88;;;4.55;;
70026;SDS011;57506;50.092;15.804;2023-04-25T12:02:46;9.30;;;4.85;;
70026;SDS011;57506;50.092;15.804;2023-04-25T12:05:13;9.93;;;5.60;;
70026;SDS011;57506;50.092;15.804;2023-04-25T12:07:40;9.63;;;5.70;;
70026;SDS011;57506;50.092;15.804;2023-04-25T12:10:13;8.20;;;5.22;;
70026;SDS011;57506;50.092;15.804;2023-04-25T12:12:43;8.13;;;4.83;;
70026;SDS011;57506;50.092;15.804;2023-04-25T12:17:41;9.15;;;5.60;;
70026;SDS011;57506;50.092;15.804;2023-04-25T12:20:12;9.18;;;5.80;;
70026;SDS011;57506;50.092;15.804;2023-04-25T12:22:40;9.77;;;5.50;;
70026;SDS011;57506;50.092;15.804;2023-04-25T12:25:10;10.40;;;6.23;;
70026;SDS011;57506;50.092;15.804;2023-04-25T12:27:37;10.25;;;7.10;;
70026;SDS011;57506;50.092;15.804;2023-04-25T12:30:03;10.90;;;6.38;;
70026;SDS011;57506;50.092;15.804;2023-04-25T12:32:29;9.90;;;5.95;;
70026;SDS011;57506;50.092;15.804;2023-04-25T12:34:54;11.57;;;5.20;;
70026;SDS011;57506;50.092;15.804;2023-04-25T12:37:20;10.98;;;5.40;;
70026;SDS011;57506;50.092;15.804;2023-04-25T12:39:46;7.40;;;5.00;;
70026;SDS011;57506;50.092;15.804;2023-04-25T12:42:12;9.90;;;5.47;;
70026;SDS011;57506;50.092;15.804;2023-04-25T12:44:37;7.93;;;4.80;;
70026;SDS011;57506;50.092;15.804;2023-04-25T12:47:03;13.38;;;5.03;;
70026;SDS011;57506;50.092;15.804;2023-04-25T12:49:30;7.53;;;4.72;;
70026;SDS011;57506;50.092;15.804;2023-04-25T12:51:56;6.90;;;4.47;;
70026;SDS011;57506;50.092;15.804;2023-04-25T12:54:22;8.87;;;5.00;;
70026;SDS011;57506;50.092;15.804;2023-04-25T12:56:47;7.87;;;5.03;;
70026;SDS011;57506;50.092;15.804;2023-04-25T12:59:13;8.35;;;5.10;;
70026;SDS011;57506;50.092;15.804;2023-04-25T13:01:39;7.43;;;4.80;;
70026;SDS011;57506;50.092;15.804;2023-04-25T13:04:04;9.55;;;6.05;;
70026;SDS011;57506;50.092;15.804;2023-04-25T13:06:30;11.37;;;6.77;;
70026;SDS011;57506;50.092;15.804;2023-04-25T13:08:55;13.02;;;7.85;;
70026;SDS011;57506;50.092;15.804;2023-04-25T13:11:21;12.57;;;7.03;;
70026;SDS011;57506;50.092;15.804;2023-04-25T13:13:46;12.50;;;7.20;;
70026;SDS011;57506;50.092;15.804;2023-04-25T13:16:12;14.13;;;7.73;;
70026;SDS011;57506;50.092;15.804;2023-04-25T13:18:41;12.85;;;7.47;;
70026;SDS011;57506;50.092;15.804;2023-04-25T13:21:07;12.15;;;7.40;;
70026;SDS011;57506;50.092;15.804;2023-04-25T13:23:35;12.93;;;7.38;;
70026;SDS011;57506;50.092;15.804;2023-04-25T13:26:01;11.43;;;6.93;;
70026;SDS011;57506;50.092;15.804;2023-04-25T13:28:27;10.13;;;6.73;;
70026;SDS011;57506;50.092;15.804;2023-04-25T13:30:53;10.77;;;6.65;;
70026;SDS011;57506;50.092;15.804;2023-04-25T13:33:19;13.32;;;6.05;;
70026;SDS011;57506;50.092;15.804;2023-04-25T13:35:45;9.57;;;6.07;;
70026;SDS011;57506;50.092;15.804;2023-04-25T13:38:18;10.07;;;6.70;;
70026;SDS011;57506;50.092;15.804;2023-04-25T13:40:44;9.00;;;5.63;;
70026;SDS011;57506;50.092;15.804;2023-04-25T13:43:10;11.13;;;6.03;;
70026;SDS011;57506;50.092;15.804;2023-04-25T13:45:36;12.03;;;5.93;;
70026;SDS011;57506;50.092;15.804;2023-04-25T13:48:01;13.07;;;5.63;;
70026;SDS011;57506;50.092;15.804;2023-04-25T13:50:27;11.47;;;5.30;;
70026;SDS011;57506;50.092;15.804;2023-04-25T13:52:53;9.77;;;4.90;;
70026;SDS011;57506;50.092;15.804;2023-04-25T13:55:18;7.93;;;4.63;;
70026;SDS011;57506;50.092;15.804;2023-04-25T13:57:44;9.80;;;4.80;;
70026;SDS011;57506;50.092;15.804;2023-04-25T14:00:09;9.25;;;4.40;;
70026;SDS011;57506;50.092;15.804;2023-04-25T14:02:35;10.47;;;5.20;;
70026;SDS011;57506;50.092;15.804;2023-04-25T14:05:02;6.78;;;4.18;;
70026;SDS011;57506;50.092;15.804;2023-04-25T14:07:28;11.25;;;4.35;;
70026;SDS011;57506;50.092;15.804;2023-04-25T14:09:54;7.40;;;3.97;;
70026;SDS011;57506;50.092;15.804;2023-04-25T14:12:19;9.57;;;4.93;;
70026;SDS011;57506;50.092;15.804;2023-04-25T14:14:45;9.50;;;5.20;;
70026;SDS011;57506;50.092;15.804;2023-04-25T14:17:10;9.80;;;4.93;;
70026;SDS011;57506;50.092;15.804;2023-04-25T14:19:36;8.43;;;4.63;;
70026;SDS011;57506;50.092;15.804;2023-04-25T14:22:03;10.00;;;5.50;;
70026;SDS011;57506;50.092;15.804;2023-04-25T14:24:29;10.50;;;4.90;;
70026;SDS011;57506;50.092;15.804;2023-04-25T14:26:55;11.33;;;5.30;;
70026;SDS011;57506;50.092;15.804;2023-04-25T14:29:21;10.95;;;5.20;;
70026;SDS011;57506;50.092;15.804;2023-04-25T14:31:46;9.75;;;4.88;;
70026;SDS011;57506;50.092;15.804;2023-04-25T14:34:12;9.10;;;5.00;;
70026;SDS011;57506;50.092;15.804;2023-04-25T14:36:38;9.77;;;5.25;;
70026;SDS011;57506;50.092;15.804;2023-04-25T14:39:04;10.63;;;5.10;;
70026;SDS011;57506;50.092;15.804;2023-04-25T14:41:32;9.43;;;5.20;;
70026;SDS011;57506;50.092;15.804;2023-04-25T14:43:57;9.90;;;5.10;;